Aviation Digital Data Service (ADDS)

Output produced by METARs form (1552 UTC 30 October 2020)
found at http://www.aviationweather.gov/metar/data/
 
METAR text: RJTC 300714Z 01014G24KT 330V030 9999 FEW030 BKN080 15/M00 Q1018 RMK 1CU030 5AC080 A3006
Conditions at: RJTC (TACHIKAWA (JASDF, JP) observed 0714 UTC 30 October 2020
Temperature: 15.0°C (59°F)
Dewpoint: 0.0°C (32°F) [RH = 36%]
Pressure (altimeter): 30.06 inches Hg (1018.0 mb)
Winds: from the N (10 degrees) at 16 MPH (14 knots; 7.2 m/s)
gusting to 28 MPH (24 knots; 12.3 m/s)
Visibility: 6 or more miles (10+ km)
Ceiling: 8000 feet AGL
Clouds: few clouds at 3000 feet AGL
broken clouds at 8000 feet AGL
Weather: no significant weather observed at this time

METAR text: RJTC 300124Z 03006KT 360V060 9999 -SHRA FEW030 BKN050 BKN080 15/02 Q1018 RMK 1CU030 5SC050 7AC080 A3006
Conditions at: RJTC (TACHIKAWA (JASDF, JP) observed 0124 UTC 30 October 2020
Temperature: 15.0°C (59°F)
Dewpoint: 2.0°C (36°F) [RH = 41%]
Pressure (altimeter): 30.06 inches Hg (1018.0 mb)
Winds: from the NNE (30 degrees) at 7 MPH (6 knots; 3.1 m/s)
Visibility: 6 or more miles (10+ km)
Ceiling: 5000 feet AGL
Clouds: few clouds at 3000 feet AGL
broken clouds at 5000 feet AGL
broken clouds at 8000 feet AGL
Weather: -SHRA  (light rain showers)

METAR text: RJTC 300116Z 03008KT 360V060 9999 FEW030 BKN050 BKN080 15/01 Q1017 RMK 1CU030 5SC050 7AC080 A3005
Conditions at: RJTC (TACHIKAWA (JASDF, JP) observed 0116 UTC 30 October 2020
Temperature: 15.0°C (59°F)
Dewpoint: 1.0°C (34°F) [RH = 39%]
Pressure (altimeter): 30.03 inches Hg (1017.0 mb)
Winds: from the NNE (30 degrees) at 9 MPH (8 knots; 4.1 m/s)
Visibility: 6 or more miles (10+ km)
Ceiling: 5000 feet AGL
Clouds: few clouds at 3000 feet AGL
broken clouds at 5000 feet AGL
broken clouds at 8000 feet AGL
Weather: no significant weather observed at this time